TGW674 WSSS-VTCC
Flight info
| Callsign | TGW674 |
|---|---|
| Flight time | 2h 37m |
| Altitude | 38000 |
| Route | VMR6A VMR B469 VPK M751 VKB M644 RYN N891 BKK Y26 MARNI MARNI2B |
| Aircraft | A20N/M-SDE2E3FGHIRWXY/LB1 |
Departure
| Time | 2026-05-06 03:07 |
|---|---|
| Airport | Singapore Changi Airport (WSSS) |
Arrival
| Time | 2026-05-06 05:45 |
|---|---|
| Airport | Chiang Mai International Airport (VTCC) |
| Time | Latitude | Longitude | Altitude | Speed | Heading |
|---|---|---|---|---|---|
| 2026-05-06 02:34 | 1.36438 | 103.99295 | 30 ft | 0 kts | 143° |
| 2026-05-06 02:34 | 1.36440 | 103.99294 | 30 ft | 0 kts | 143° |
| 2026-05-06 02:35 | 1.36441 | 103.99293 | 30 ft | 0 kts | 143° |
| 2026-05-06 02:52 | 1.36449 | 103.99287 | 30 ft | 2 kts | 142° |
| 2026-05-06 02:53 | 1.36462 | 103.99277 | 30 ft | 2 kts | 143° |
| 2026-05-06 02:53 | 1.36475 | 103.99267 | 30 ft | 2 kts | 144° |
| 2026-05-06 02:53 | 1.36488 | 103.99257 | 30 ft | 2 kts | 130° |
| 2026-05-06 02:53 | 1.36497 | 103.99243 | 30 ft | 2 kts | 105° |
| 2026-05-06 02:54 | 1.36497 | 103.99227 | 30 ft | 2 kts | 57° |
| 2026-05-06 02:54 | 1.36487 | 103.99213 | 30 ft | 2 kts | 53° |
| 2026-05-06 02:54 | 1.36481 | 103.99205 | 30 ft | 0 kts | 54° |
| 2026-05-06 02:58 | 1.36483 | 103.99208 | 30 ft | 3 kts | 54° |
| 2026-05-06 02:59 | 1.36521 | 103.99256 | 30 ft | 13 kts | 52° |
| 2026-05-06 02:59 | 1.36582 | 103.99340 | 30 ft | 16 kts | 59° |
| 2026-05-06 02:59 | 1.36560 | 103.99450 | 30 ft | 18 kts | 114° |
| 2026-05-06 02:59 | 1.36509 | 103.99568 | 30 ft | 20 kts | 112° |
| 2026-05-06 03:00 | 1.36450 | 103.99702 | 30 ft | 22 kts | 112° |
| 2026-05-06 03:00 | 1.36344 | 103.99762 | 30 ft | 20 kts | 204° |
| 2026-05-06 03:00 | 1.36211 | 103.99708 | 30 ft | 22 kts | 203° |
| 2026-05-06 03:00 | 1.36068 | 103.99649 | 30 ft | 23 kts | 203° |
| 2026-05-06 03:01 | 1.35936 | 103.99594 | 30 ft | 0 kts | 203° |
| 2026-05-06 03:01 | 1.35928 | 103.99590 | 30 ft | 3 kts | 207° |
| 2026-05-06 03:01 | 1.35900 | 103.99575 | 30 ft | 6 kts | 201° |
| 2026-05-06 03:01 | 1.35850 | 103.99555 | 30 ft | 9 kts | 202° |
| 2026-05-06 03:02 | 1.35772 | 103.99522 | 30 ft | 17 kts | 203° |
| 2026-05-06 03:02 | 1.35639 | 103.99466 | 30 ft | 23 kts | 202° |
| 2026-05-06 03:02 | 1.35484 | 103.99402 | 30 ft | 25 kts | 202° |
| 2026-05-06 03:02 | 1.35318 | 103.99332 | 30 ft | 26 kts | 204° |
| 2026-05-06 03:03 | 1.35148 | 103.99257 | 30 ft | 27 kts | 202° |
| 2026-05-06 03:03 | 1.34967 | 103.99183 | 30 ft | 28 kts | 202° |
| 2026-05-06 03:03 | 1.34783 | 103.99105 | 30 ft | 29 kts | 203° |
| 2026-05-06 03:03 | 1.34592 | 103.99025 | 30 ft | 30 kts | 203° |
| 2026-05-06 03:04 | 1.34397 | 103.98942 | 30 ft | 31 kts | 202° |
| 2026-05-06 03:04 | 1.34199 | 103.98863 | 30 ft | 31 kts | 203° |
| 2026-05-06 03:04 | 1.33996 | 103.98776 | 30 ft | 32 kts | 204° |
| 2026-05-06 03:04 | 1.33789 | 103.98687 | 30 ft | 33 kts | 202° |
| 2026-05-06 03:05 | 1.33579 | 103.98599 | 30 ft | 33 kts | 202° |
| 2026-05-06 03:05 | 1.33367 | 103.98509 | 30 ft | 33 kts | 204° |
| 2026-05-06 03:05 | 1.33152 | 103.98418 | 30 ft | 34 kts | 202° |
| 2026-05-06 03:05 | 1.32977 | 103.98356 | 30 ft | 17 kts | 173° |
| 2026-05-06 03:06 | 1.32911 | 103.98448 | 30 ft | 17 kts | 114° |
| 2026-05-06 03:06 | 1.32914 | 103.98513 | 30 ft | 4 kts | 26° |
| 2026-05-06 03:06 | 1.32934 | 103.98522 | 30 ft | 6 kts | 25° |
| 2026-05-06 03:06 | 1.33078 | 103.98582 | 30 ft | 49 kts | 23° |
| 2026-05-06 03:07 | 1.33610 | 103.98806 | 30 ft | 113 kts | 22° |
| 2026-05-06 03:07 | 1.34492 | 103.99178 | 45 ft | 159 kts | 23° |
| 2026-05-06 03:07 | 1.35174 | 103.99476 | 417 ft | 156 kts | 23° |
| 2026-05-06 03:07 | 1.36174 | 103.99905 | 999 ft | 159 kts | 23° |
| 2026-05-06 03:08 | 1.37208 | 104.00337 | 1534 ft | 166 kts | 23° |
| 2026-05-06 03:08 | 1.38675 | 104.00948 | 2146 ft | 181 kts | 23° |
| 2026-05-06 03:08 | 1.39475 | 104.01284 | 2368 ft | 195 kts | 23° |
| 2026-05-06 03:08 | 1.40792 | 104.01838 | 2680 ft | 220 kts | 23° |
| 2026-05-06 03:09 | 1.42276 | 104.02463 | 3207 ft | 242 kts | 23° |
| 2026-05-06 03:09 | 1.43901 | 104.03151 | 3804 ft | 264 kts | 23° |
| 2026-05-06 03:09 | 1.46211 | 104.04127 | 4877 ft | 276 kts | 23° |
| 2026-05-06 03:09 | 1.47410 | 104.04632 | 5509 ft | 279 kts | 21° |
| 2026-05-06 03:10 | 1.49314 | 104.04989 | 6415 ft | 282 kts | 356° |
| 2026-05-06 03:10 | 1.51211 | 104.04486 | 7237 ft | 286 kts | 334° |
| 2026-05-06 03:10 | 1.52990 | 104.03548 | 8104 ft | 291 kts | 330° |
| 2026-05-06 03:10 | 1.54758 | 104.02540 | 8959 ft | 295 kts | 330° |
| 2026-05-06 03:11 | 1.56530 | 104.01532 | 9779 ft | 299 kts | 330° |
| 2026-05-06 03:11 | 1.58370 | 104.00505 | 10424 ft | 310 kts | 331° |
| 2026-05-06 03:11 | 1.60330 | 103.99432 | 10667 ft | 333 kts | 332° |
| 2026-05-06 03:11 | 1.62433 | 103.98293 | 10914 ft | 352 kts | 332° |
| 2026-05-06 03:12 | 1.64605 | 103.97122 | 11524 ft | 357 kts | 332° |
| 2026-05-06 03:12 | 1.66803 | 103.95936 | 12211 ft | 360 kts | 332° |
| 2026-05-06 03:12 | 1.69026 | 103.94737 | 12891 ft | 364 kts | 332° |
| 2026-05-06 03:12 | 1.71269 | 103.93528 | 13572 ft | 368 kts | 333° |
| 2026-05-06 03:13 | 1.73551 | 103.92325 | 14167 ft | 372 kts | 336° |
| 2026-05-06 03:13 | 1.75984 | 103.91437 | 14762 ft | 373 kts | 347° |
| 2026-05-06 03:13 | 1.78544 | 103.90984 | 15353 ft | 375 kts | 356° |
| 2026-05-06 03:13 | 1.81155 | 103.90826 | 15929 ft | 377 kts | 358° |
| 2026-05-06 03:14 | 1.83791 | 103.90667 | 16491 ft | 381 kts | 358° |
| 2026-05-06 03:14 | 1.86420 | 103.90502 | 17043 ft | 384 kts | 358° |
| 2026-05-06 03:14 | 1.89103 | 103.90331 | 17581 ft | 388 kts | 358° |
| 2026-05-06 03:14 | 1.91809 | 103.90158 | 18117 ft | 391 kts | 358° |
| 2026-05-06 03:15 | 1.94533 | 103.89984 | 18593 ft | 394 kts | 358° |
| 2026-05-06 03:15 | 1.97278 | 103.89809 | 19067 ft | 396 kts | 358° |
| 2026-05-06 03:15 | 2.00041 | 103.89634 | 19526 ft | 399 kts | 358° |
| 2026-05-06 03:15 | 2.02819 | 103.89457 | 19989 ft | 401 kts | 358° |
| 2026-05-06 03:16 | 2.05616 | 103.89279 | 20444 ft | 404 kts | 358° |
| 2026-05-06 03:16 | 2.08433 | 103.89100 | 20891 ft | 407 kts | 358° |
| 2026-05-06 03:16 | 2.11269 | 103.88920 | 21331 ft | 409 kts | 358° |
| 2026-05-06 03:16 | 2.14118 | 103.88738 | 21780 ft | 412 kts | 358° |
| 2026-05-06 03:17 | 2.16945 | 103.88558 | 22194 ft | 414 kts | 358° |
| 2026-05-06 03:17 | 2.19830 | 103.88375 | 22630 ft | 417 kts | 358° |
| 2026-05-06 03:17 | 2.22733 | 103.88191 | 23049 ft | 420 kts | 358° |
| 2026-05-06 03:17 | 2.25664 | 103.88005 | 23465 ft | 422 kts | 358° |
| 2026-05-06 03:18 | 2.28606 | 103.87818 | 23815 ft | 424 kts | 358° |
| 2026-05-06 03:18 | 2.31566 | 103.87629 | 24160 ft | 426 kts | 358° |
| 2026-05-06 03:18 | 2.34533 | 103.87439 | 24499 ft | 429 kts | 357° |
| 2026-05-06 03:18 | 2.37505 | 103.87050 | 24828 ft | 432 kts | 350° |
| 2026-05-06 03:19 | 2.40425 | 103.86288 | 25150 ft | 436 kts | 343° |
| 2026-05-06 03:19 | 2.43257 | 103.85161 | 25476 ft | 440 kts | 336° |
| 2026-05-06 03:19 | 2.46007 | 103.83887 | 25794 ft | 442 kts | 336° |
| 2026-05-06 03:19 | 2.48842 | 103.82587 | 26108 ft | 444 kts | 337° |
| 2026-05-06 03:20 | 2.54459 | 103.80021 | 26702 ft | 448 kts | 337° |
| 2026-05-06 03:20 | 2.57307 | 103.78720 | 26989 ft | 450 kts | 337° |
| 2026-05-06 03:20 | 2.60165 | 103.77414 | 27289 ft | 452 kts | 337° |
| 2026-05-06 03:21 | 2.63030 | 103.76103 | 27569 ft | 454 kts | 336° |
| 2026-05-06 03:21 | 2.65912 | 103.74785 | 27843 ft | 456 kts | 336° |
| 2026-05-06 03:21 | 2.68802 | 103.73463 | 28100 ft | 458 kts | 336° |
| 2026-05-06 03:21 | 2.71708 | 103.72134 | 28375 ft | 460 kts | 336° |
| 2026-05-06 03:22 | 2.74627 | 103.70804 | 28623 ft | 462 kts | 337° |
| 2026-05-06 03:22 | 2.77566 | 103.69487 | 28873 ft | 464 kts | 337° |
| 2026-05-06 03:22 | 2.80518 | 103.68170 | 29121 ft | 466 kts | 337° |
| 2026-05-06 03:22 | 2.83446 | 103.66865 | 29355 ft | 467 kts | 337° |
| 2026-05-06 03:23 | 2.86423 | 103.65536 | 29595 ft | 469 kts | 337° |
| 2026-05-06 03:23 | 2.89409 | 103.64200 | 29825 ft | 471 kts | 337° |
| 2026-05-06 03:23 | 2.92412 | 103.62861 | 30056 ft | 473 kts | 337° |
| 2026-05-06 03:23 | 2.95423 | 103.61528 | 30268 ft | 474 kts | 337° |
| 2026-05-06 03:24 | 2.98438 | 103.60186 | 30486 ft | 475 kts | 337° |
| 2026-05-06 03:24 | 3.01466 | 103.58838 | 30716 ft | 477 kts | 337° |
| 2026-05-06 03:24 | 3.04501 | 103.57486 | 30948 ft | 478 kts | 336° |
| 2026-05-06 03:24 | 3.07536 | 103.56134 | 31228 ft | 477 kts | 336° |
| 2026-05-06 03:25 | 3.10572 | 103.54782 | 31538 ft | 476 kts | 336° |
| 2026-05-06 03:25 | 3.13605 | 103.53433 | 31838 ft | 475 kts | 336° |
| 2026-05-06 03:25 | 3.16626 | 103.52087 | 32146 ft | 475 kts | 336° |
| 2026-05-06 03:25 | 3.19635 | 103.50740 | 32434 ft | 474 kts | 336° |
| 2026-05-06 03:26 | 3.22642 | 103.49387 | 32725 ft | 473 kts | 336° |
| 2026-05-06 03:26 | 3.25639 | 103.48038 | 33004 ft | 472 kts | 336° |
| 2026-05-06 03:26 | 3.28599 | 103.46704 | 33271 ft | 472 kts | 336° |
| 2026-05-06 03:26 | 3.31591 | 103.45357 | 33531 ft | 471 kts | 336° |
| 2026-05-06 03:27 | 3.34579 | 103.44012 | 33802 ft | 470 kts | 336° |
| 2026-05-06 03:27 | 3.37559 | 103.42670 | 34042 ft | 470 kts | 336° |
| 2026-05-06 03:27 | 3.40544 | 103.41345 | 34268 ft | 469 kts | 337° |
| 2026-05-06 03:27 | 3.43569 | 103.40124 | 34495 ft | 468 kts | 339° |
| 2026-05-06 03:28 | 3.46607 | 103.38947 | 34716 ft | 467 kts | 339° |
| 2026-05-06 03:28 | 3.49636 | 103.37774 | 34936 ft | 466 kts | 339° |
| 2026-05-06 03:28 | 3.52654 | 103.36594 | 35146 ft | 466 kts | 339° |
| 2026-05-06 03:28 | 3.55672 | 103.35404 | 35378 ft | 465 kts | 339° |
| 2026-05-06 03:29 | 3.58687 | 103.34209 | 35588 ft | 465 kts | 339° |
| 2026-05-06 03:29 | 3.61652 | 103.33031 | 35805 ft | 464 kts | 339° |
| 2026-05-06 03:29 | 3.64652 | 103.31837 | 36027 ft | 464 kts | 339° |
| 2026-05-06 03:29 | 3.67646 | 103.30647 | 36260 ft | 463 kts | 339° |
| 2026-05-06 03:30 | 3.70642 | 103.29455 | 36495 ft | 462 kts | 339° |
| 2026-05-06 03:30 | 3.73630 | 103.28267 | 36750 ft | 462 kts | 339° |
| 2026-05-06 03:30 | 3.76614 | 103.27080 | 37011 ft | 461 kts | 339° |
| 2026-05-06 03:30 | 3.79595 | 103.25895 | 37255 ft | 460 kts | 339° |
| 2026-05-06 03:31 | 3.82569 | 103.24712 | 37495 ft | 459 kts | 339° |
| 2026-05-06 03:31 | 3.85535 | 103.23532 | 37735 ft | 459 kts | 339° |
| 2026-05-06 03:31 | 3.88502 | 103.22352 | 37851 ft | 458 kts | 339° |
| 2026-05-06 03:31 | 3.91466 | 103.21173 | 37880 ft | 457 kts | 339° |
| 2026-05-06 03:32 | 3.97372 | 103.18824 | 37876 ft | 456 kts | 339° |
| 2026-05-06 03:32 | 4.03248 | 103.16487 | 37871 ft | 457 kts | 339° |
| 2026-05-06 03:33 | 4.09146 | 103.14140 | 37868 ft | 456 kts | 340° |
| 2026-05-06 03:33 | 4.14992 | 103.11814 | 37870 ft | 456 kts | 340° |
| 2026-05-06 03:34 | 4.20888 | 103.09468 | 37871 ft | 456 kts | 340° |
| 2026-05-06 03:34 | 4.26779 | 103.07124 | 37872 ft | 456 kts | 340° |
| 2026-05-06 03:35 | 4.32685 | 103.04773 | 37877 ft | 456 kts | 340° |
| 2026-05-06 03:35 | 4.38595 | 103.02420 | 37881 ft | 456 kts | 340° |
| 2026-05-06 03:36 | 4.44504 | 103.00067 | 37882 ft | 457 kts | 340° |
| 2026-05-06 03:36 | 4.50374 | 102.97730 | 37887 ft | 457 kts | 340° |
| 2026-05-06 03:37 | 4.56290 | 102.95373 | 37889 ft | 457 kts | 340° |
| 2026-05-06 03:37 | 4.62204 | 102.93017 | 37890 ft | 457 kts | 340° |
| 2026-05-06 03:38 | 4.68125 | 102.90658 | 37894 ft | 458 kts | 340° |
| 2026-05-06 03:38 | 4.74043 | 102.88299 | 37891 ft | 458 kts | 340° |
| 2026-05-06 03:39 | 4.79967 | 102.85938 | 37896 ft | 458 kts | 340° |
| 2026-05-06 03:39 | 4.85886 | 102.83578 | 37891 ft | 458 kts | 340° |
| 2026-05-06 03:40 | 4.91809 | 102.81221 | 37891 ft | 458 kts | 340° |
| 2026-05-06 03:40 | 4.97720 | 102.78873 | 37889 ft | 457 kts | 340° |
| 2026-05-06 03:41 | 5.03644 | 102.76518 | 37890 ft | 457 kts | 340° |
| 2026-05-06 03:41 | 5.09556 | 102.74167 | 37890 ft | 457 kts | 340° |
| 2026-05-06 03:42 | 5.15468 | 102.71815 | 37891 ft | 457 kts | 340° |
| 2026-05-06 03:42 | 5.21373 | 102.69466 | 37893 ft | 457 kts | 340° |
| 2026-05-06 03:43 | 5.27237 | 102.67101 | 37888 ft | 456 kts | 340° |
| 2026-05-06 03:43 | 5.33128 | 102.64715 | 37889 ft | 456 kts | 340° |
| 2026-05-06 03:44 | 5.39022 | 102.62344 | 37893 ft | 456 kts | 340° |
| 2026-05-06 03:44 | 5.44923 | 102.59993 | 37897 ft | 457 kts | 340° |
| 2026-05-06 03:45 | 5.50830 | 102.57637 | 37893 ft | 456 kts | 340° |
| 2026-05-06 03:45 | 5.56737 | 102.55278 | 37889 ft | 456 kts | 340° |
| 2026-05-06 03:46 | 5.62639 | 102.52919 | 37890 ft | 456 kts | 340° |
| 2026-05-06 03:46 | 5.68535 | 102.50561 | 37885 ft | 456 kts | 340° |
| 2026-05-06 03:47 | 5.74400 | 102.48216 | 37888 ft | 456 kts | 340° |
| 2026-05-06 03:47 | 5.80294 | 102.45859 | 37886 ft | 456 kts | 340° |
| 2026-05-06 03:48 | 5.86188 | 102.43500 | 37884 ft | 456 kts | 340° |
| 2026-05-06 03:48 | 5.92081 | 102.41142 | 37880 ft | 456 kts | 340° |
| 2026-05-06 03:49 | 5.97981 | 102.38781 | 37885 ft | 456 kts | 340° |
| 2026-05-06 03:49 | 6.03876 | 102.36420 | 37881 ft | 456 kts | 339° |
| 2026-05-06 03:50 | 6.09769 | 102.34060 | 37882 ft | 456 kts | 339° |
| 2026-05-06 03:50 | 6.15683 | 102.31900 | 37880 ft | 455 kts | 346° |
| 2026-05-06 03:51 | 6.21919 | 102.30687 | 37881 ft | 453 kts | 354° |
| 2026-05-06 03:51 | 6.28132 | 102.29880 | 37877 ft | 453 kts | 353° |
| 2026-05-06 03:52 | 6.34394 | 102.29084 | 37875 ft | 453 kts | 354° |
| 2026-05-06 03:52 | 6.40673 | 102.28375 | 37875 ft | 454 kts | 355° |
| 2026-05-06 03:53 | 6.46952 | 102.27662 | 37877 ft | 454 kts | 354° |
| 2026-05-06 03:53 | 6.53238 | 102.26939 | 37879 ft | 454 kts | 354° |
| 2026-05-06 03:54 | 6.59523 | 102.26214 | 37879 ft | 455 kts | 354° |
| 2026-05-06 03:54 | 6.65814 | 102.25488 | 37885 ft | 455 kts | 354° |
| 2026-05-06 03:55 | 6.71054 | 102.24883 | 37891 ft | 455 kts | 354° |
| 2026-05-06 03:55 | 6.78376 | 102.24038 | 37894 ft | 456 kts | 354° |
| 2026-05-06 03:56 | 6.84683 | 102.23310 | 37896 ft | 456 kts | 354° |
| 2026-05-06 03:56 | 6.90991 | 102.22581 | 37898 ft | 456 kts | 354° |
| 2026-05-06 03:57 | 6.96225 | 102.21977 | 37900 ft | 456 kts | 354° |
| 2026-05-06 03:57 | 7.02550 | 102.21264 | 37901 ft | 456 kts | 355° |
| 2026-05-06 03:58 | 7.08861 | 102.20548 | 37901 ft | 456 kts | 355° |
| 2026-05-06 03:58 | 7.15165 | 102.19839 | 37898 ft | 456 kts | 355° |
| 2026-05-06 03:59 | 7.21476 | 102.19110 | 37897 ft | 456 kts | 355° |
| 2026-05-06 03:59 | 7.27773 | 102.18374 | 37894 ft | 455 kts | 355° |
| 2026-05-06 04:00 | 7.34067 | 102.17640 | 37894 ft | 455 kts | 355° |
| 2026-05-06 04:00 | 7.40357 | 102.16906 | 37895 ft | 455 kts | 355° |
| 2026-05-06 04:01 | 7.46601 | 102.16179 | 37895 ft | 455 kts | 355° |
| 2026-05-06 04:01 | 7.52889 | 102.15448 | 37896 ft | 455 kts | 355° |
| 2026-05-06 04:02 | 7.59173 | 102.14716 | 37893 ft | 454 kts | 355° |
| 2026-05-06 04:02 | 7.65463 | 102.13984 | 37891 ft | 455 kts | 355° |
| 2026-05-06 04:03 | 7.71748 | 102.13235 | 37896 ft | 454 kts | 353° |
| 2026-05-06 04:03 | 7.78032 | 102.12472 | 37893 ft | 454 kts | 354° |
| 2026-05-06 04:04 | 7.84320 | 102.11745 | 37899 ft | 454 kts | 354° |
| 2026-05-06 04:04 | 7.90566 | 102.11015 | 37898 ft | 454 kts | 354° |
| 2026-05-06 04:05 | 7.96853 | 102.10286 | 37894 ft | 454 kts | 354° |
| 2026-05-06 04:05 | 8.03136 | 102.09561 | 37894 ft | 454 kts | 355° |
| 2026-05-06 04:06 | 8.09430 | 102.08995 | 37901 ft | 453 kts | 356° |
| 2026-05-06 04:06 | 8.15720 | 102.08478 | 37900 ft | 453 kts | 356° |
| 2026-05-06 04:07 | 8.21968 | 102.07942 | 37903 ft | 453 kts | 356° |
| 2026-05-06 04:07 | 8.28247 | 102.07395 | 37900 ft | 452 kts | 356° |
| 2026-05-06 04:08 | 8.34511 | 102.06847 | 37895 ft | 452 kts | 356° |
| 2026-05-06 04:08 | 8.40769 | 102.06299 | 37894 ft | 452 kts | 356° |
| 2026-05-06 04:09 | 8.47056 | 102.05750 | 37891 ft | 452 kts | 356° |
| 2026-05-06 04:09 | 8.53332 | 102.05200 | 37895 ft | 453 kts | 356° |
| 2026-05-06 04:10 | 8.59618 | 102.04650 | 37896 ft | 453 kts | 356° |
| 2026-05-06 04:10 | 8.65908 | 102.04098 | 37901 ft | 453 kts | 356° |
| 2026-05-06 04:11 | 8.72151 | 102.03550 | 37896 ft | 453 kts | 356° |
| 2026-05-06 04:11 | 8.78448 | 102.02998 | 37901 ft | 454 kts | 356° |
| 2026-05-06 04:12 | 8.84741 | 102.02446 | 37896 ft | 454 kts | 356° |
| 2026-05-06 04:12 | 8.91036 | 102.01892 | 37902 ft | 454 kts | 356° |
| 2026-05-06 04:13 | 8.97344 | 102.01338 | 37899 ft | 454 kts | 356° |
| 2026-05-06 04:13 | 9.03644 | 102.00784 | 37903 ft | 454 kts | 356° |
| 2026-05-06 04:14 | 9.09903 | 102.00236 | 37900 ft | 454 kts | 356° |
| 2026-05-06 04:14 | 9.16200 | 101.99679 | 37899 ft | 454 kts | 356° |
| 2026-05-06 04:15 | 9.22496 | 101.99124 | 37903 ft | 454 kts | 355° |
| 2026-05-06 04:15 | 9.28797 | 101.98569 | 37900 ft | 454 kts | 355° |
| 2026-05-06 04:16 | 9.35103 | 101.98017 | 37900 ft | 454 kts | 355° |
| 2026-05-06 04:16 | 9.41398 | 101.97469 | 37899 ft | 454 kts | 355° |
| 2026-05-06 04:17 | 9.47700 | 101.96921 | 37903 ft | 454 kts | 355° |
| 2026-05-06 04:17 | 9.53961 | 101.96374 | 37903 ft | 454 kts | 355° |
| 2026-05-06 04:18 | 9.60262 | 101.95824 | 37901 ft | 454 kts | 355° |
| 2026-05-06 04:18 | 9.66568 | 101.95273 | 37901 ft | 454 kts | 355° |
| 2026-05-06 04:19 | 9.72870 | 101.94722 | 37903 ft | 454 kts | 355° |
| 2026-05-06 04:19 | 9.79177 | 101.94171 | 37903 ft | 454 kts | 355° |
| 2026-05-06 04:20 | 9.85480 | 101.93622 | 37904 ft | 454 kts | 355° |
| 2026-05-06 04:20 | 9.91780 | 101.93072 | 37899 ft | 455 kts | 355° |
| 2026-05-06 04:21 | 9.98047 | 101.92526 | 37898 ft | 455 kts | 355° |
| 2026-05-06 04:21 | 10.04361 | 101.91972 | 37892 ft | 455 kts | 355° |
| 2026-05-06 04:22 | 10.10670 | 101.91420 | 37894 ft | 455 kts | 355° |
| 2026-05-06 04:23 | 10.20159 | 101.90589 | 37889 ft | 456 kts | 355° |
| 2026-05-06 04:23 | 10.26486 | 101.90035 | 37897 ft | 457 kts | 355° |
| 2026-05-06 04:24 | 10.32833 | 101.89476 | 37900 ft | 457 kts | 355° |
| 2026-05-06 04:24 | 10.39178 | 101.88919 | 37906 ft | 458 kts | 355° |
| 2026-05-06 04:25 | 10.45535 | 101.88359 | 37906 ft | 458 kts | 355° |
| 2026-05-06 04:25 | 10.51875 | 101.87804 | 37906 ft | 456 kts | 355° |
| 2026-05-06 04:26 | 10.58158 | 101.87258 | 37903 ft | 456 kts | 355° |
| 2026-05-06 04:26 | 10.64489 | 101.86700 | 37901 ft | 456 kts | 355° |
| 2026-05-06 04:27 | 10.70812 | 101.86139 | 37900 ft | 456 kts | 355° |
| 2026-05-06 04:27 | 10.77142 | 101.85579 | 37904 ft | 457 kts | 355° |
| 2026-05-06 04:28 | 10.83491 | 101.85015 | 37905 ft | 459 kts | 355° |
| 2026-05-06 04:28 | 10.89859 | 101.84449 | 37900 ft | 460 kts | 355° |
| 2026-05-06 04:29 | 10.96023 | 101.83901 | 37902 ft | 459 kts | 355° |
| 2026-05-06 04:29 | 11.02403 | 101.83335 | 37900 ft | 461 kts | 355° |
| 2026-05-06 04:30 | 11.08765 | 101.82771 | 37901 ft | 461 kts | 355° |
| 2026-05-06 04:30 | 11.15148 | 101.82203 | 37905 ft | 460 kts | 355° |
| 2026-05-06 04:31 | 11.21535 | 101.81635 | 37901 ft | 460 kts | 355° |
| 2026-05-06 04:31 | 11.27908 | 101.81068 | 37904 ft | 460 kts | 355° |
| 2026-05-06 04:32 | 11.34284 | 101.80503 | 37900 ft | 460 kts | 355° |
| 2026-05-06 04:32 | 11.40654 | 101.79947 | 37895 ft | 459 kts | 354° |
| 2026-05-06 04:33 | 11.47011 | 101.79375 | 37893 ft | 458 kts | 354° |
| 2026-05-06 04:33 | 11.53352 | 101.78806 | 37894 ft | 457 kts | 354° |
| 2026-05-06 04:34 | 11.59638 | 101.78254 | 37894 ft | 456 kts | 354° |
| 2026-05-06 04:34 | 11.65963 | 101.77693 | 37891 ft | 455 kts | 354° |
| 2026-05-06 04:35 | 11.72275 | 101.77122 | 37889 ft | 455 kts | 354° |
| 2026-05-06 04:35 | 11.78580 | 101.76553 | 37888 ft | 454 kts | 354° |
| 2026-05-06 04:36 | 11.84880 | 101.75989 | 37889 ft | 454 kts | 354° |
| 2026-05-06 04:36 | 11.91172 | 101.75428 | 37889 ft | 454 kts | 354° |
| 2026-05-06 04:37 | 11.97470 | 101.74861 | 37887 ft | 454 kts | 354° |
| 2026-05-06 04:37 | 12.03768 | 101.74300 | 37890 ft | 454 kts | 354° |
| 2026-05-06 04:38 | 12.10077 | 101.73732 | 37889 ft | 454 kts | 354° |
| 2026-05-06 04:38 | 12.16330 | 101.73165 | 37891 ft | 454 kts | 354° |
| 2026-05-06 04:39 | 12.22631 | 101.72599 | 37893 ft | 454 kts | 354° |
| 2026-05-06 04:39 | 12.28947 | 101.72033 | 37900 ft | 454 kts | 354° |
| 2026-05-06 04:40 | 12.35252 | 101.71470 | 37895 ft | 455 kts | 354° |
| 2026-05-06 04:40 | 12.41501 | 101.70910 | 37896 ft | 455 kts | 354° |
| 2026-05-06 04:41 | 12.47825 | 101.70341 | 37894 ft | 455 kts | 354° |
| 2026-05-06 04:41 | 12.54136 | 101.69776 | 37892 ft | 455 kts | 354° |
| 2026-05-06 04:42 | 12.60457 | 101.69207 | 37894 ft | 456 kts | 354° |
| 2026-05-06 04:42 | 12.66773 | 101.68642 | 37894 ft | 456 kts | 354° |
| 2026-05-06 04:43 | 12.73088 | 101.67994 | 37899 ft | 455 kts | 348° |
| 2026-05-06 04:43 | 12.79002 | 101.65795 | 37904 ft | 453 kts | 329° |
| 2026-05-06 04:44 | 12.83159 | 101.62585 | 37900 ft | 450 kts | 315° |
| 2026-05-06 04:44 | 12.88476 | 101.57461 | 37901 ft | 451 kts | 316° |
| 2026-05-06 04:45 | 12.93058 | 101.53063 | 37907 ft | 452 kts | 316° |
| 2026-05-06 04:45 | 12.97624 | 101.48668 | 37899 ft | 450 kts | 315° |
| 2026-05-06 04:46 | 13.01427 | 101.45003 | 37903 ft | 449 kts | 315° |
| 2026-05-06 04:46 | 13.05992 | 101.40607 | 37900 ft | 449 kts | 315° |
| 2026-05-06 04:47 | 13.11287 | 101.35509 | 37903 ft | 448 kts | 315° |
| 2026-05-06 04:47 | 13.15066 | 101.31869 | 37899 ft | 448 kts | 315° |
| 2026-05-06 04:48 | 13.19623 | 101.27473 | 37902 ft | 453 kts | 316° |
| 2026-05-06 04:48 | 13.24220 | 101.23042 | 37901 ft | 452 kts | 316° |
| 2026-05-06 04:49 | 13.28802 | 101.18622 | 37899 ft | 452 kts | 316° |
| 2026-05-06 04:49 | 13.33194 | 101.14368 | 37894 ft | 453 kts | 316° |
| 2026-05-06 04:50 | 13.37773 | 101.09913 | 37894 ft | 453 kts | 316° |
| 2026-05-06 04:50 | 13.42350 | 101.05461 | 37893 ft | 452 kts | 316° |
| 2026-05-06 04:51 | 13.46885 | 101.01050 | 37889 ft | 452 kts | 316° |
| 2026-05-06 04:51 | 13.51474 | 100.96586 | 37886 ft | 452 kts | 316° |
| 2026-05-06 04:52 | 13.56012 | 100.92168 | 37882 ft | 452 kts | 316° |
| 2026-05-06 04:52 | 13.60570 | 100.87728 | 37877 ft | 451 kts | 316° |
| 2026-05-06 04:53 | 13.65127 | 100.83287 | 37876 ft | 452 kts | 316° |
| 2026-05-06 04:53 | 13.69690 | 100.78842 | 37880 ft | 452 kts | 316° |
| 2026-05-06 04:54 | 13.74250 | 100.74389 | 37881 ft | 452 kts | 316° |
| 2026-05-06 04:54 | 13.78658 | 100.70080 | 37881 ft | 452 kts | 316° |
| 2026-05-06 04:55 | 13.83261 | 100.65588 | 37885 ft | 452 kts | 316° |
| 2026-05-06 04:55 | 13.87905 | 100.61275 | 37887 ft | 452 kts | 322° |
| 2026-05-06 04:56 | 13.93168 | 100.57737 | 37887 ft | 452 kts | 332° |
| 2026-05-06 04:56 | 13.98817 | 100.54883 | 37887 ft | 452 kts | 334° |
| 2026-05-06 04:57 | 14.04475 | 100.52032 | 37888 ft | 452 kts | 334° |
| 2026-05-06 04:57 | 14.10115 | 100.49192 | 37879 ft | 452 kts | 334° |
| 2026-05-06 04:58 | 14.15762 | 100.46352 | 37883 ft | 451 kts | 334° |
| 2026-05-06 04:58 | 14.21402 | 100.43514 | 37883 ft | 451 kts | 334° |
| 2026-05-06 04:59 | 14.27042 | 100.40675 | 37884 ft | 451 kts | 334° |
| 2026-05-06 04:59 | 14.32639 | 100.37856 | 37885 ft | 450 kts | 333° |
| 2026-05-06 05:00 | 14.38270 | 100.35018 | 37883 ft | 450 kts | 333° |
| 2026-05-06 05:00 | 14.43896 | 100.32179 | 37880 ft | 449 kts | 333° |
| 2026-05-06 05:01 | 14.49519 | 100.29342 | 37880 ft | 449 kts | 333° |
| 2026-05-06 05:01 | 14.55142 | 100.26502 | 37880 ft | 450 kts | 333° |
| 2026-05-06 05:02 | 14.60762 | 100.23663 | 37880 ft | 450 kts | 333° |
| 2026-05-06 05:02 | 14.66452 | 100.20948 | 37881 ft | 450 kts | 339° |
| 2026-05-06 05:03 | 14.72405 | 100.18929 | 37881 ft | 450 kts | 342° |
| 2026-05-06 05:03 | 14.78329 | 100.16957 | 37881 ft | 450 kts | 342° |
| 2026-05-06 05:04 | 14.84299 | 100.14967 | 37882 ft | 451 kts | 342° |
| 2026-05-06 05:04 | 14.90277 | 100.12976 | 37881 ft | 451 kts | 342° |
| 2026-05-06 05:05 | 14.96250 | 100.10986 | 37887 ft | 451 kts | 341° |
| 2026-05-06 05:05 | 15.02222 | 100.08996 | 37886 ft | 451 kts | 341° |
| 2026-05-06 05:06 | 15.08192 | 100.07006 | 37887 ft | 451 kts | 341° |
| 2026-05-06 05:06 | 15.14162 | 100.05016 | 37887 ft | 451 kts | 341° |
| 2026-05-06 05:07 | 15.20093 | 100.03039 | 37893 ft | 450 kts | 341° |
| 2026-05-06 05:07 | 15.26061 | 100.01046 | 37891 ft | 450 kts | 341° |
| 2026-05-06 05:08 | 15.32029 | 99.99054 | 37888 ft | 450 kts | 341° |
| 2026-05-06 05:08 | 15.37983 | 99.97065 | 37890 ft | 449 kts | 341° |
| 2026-05-06 05:09 | 15.43927 | 99.95078 | 37888 ft | 449 kts | 341° |
| 2026-05-06 05:09 | 15.49872 | 99.93094 | 37888 ft | 448 kts | 341° |
| 2026-05-06 05:10 | 15.55781 | 99.91113 | 37890 ft | 448 kts | 341° |
| 2026-05-06 05:10 | 15.61715 | 99.89124 | 37887 ft | 448 kts | 341° |
| 2026-05-06 05:11 | 15.67648 | 99.87136 | 37887 ft | 447 kts | 341° |
| 2026-05-06 05:11 | 15.73573 | 99.85149 | 37888 ft | 447 kts | 341° |
| 2026-05-06 05:12 | 15.79495 | 99.83163 | 37886 ft | 447 kts | 341° |
| 2026-05-06 05:12 | 15.85417 | 99.81174 | 37890 ft | 446 kts | 341° |
| 2026-05-06 05:13 | 15.91324 | 99.79189 | 37887 ft | 446 kts | 341° |
| 2026-05-06 05:13 | 15.97196 | 99.77215 | 37888 ft | 446 kts | 341° |
| 2026-05-06 05:14 | 16.03094 | 99.75231 | 37890 ft | 445 kts | 341° |
| 2026-05-06 05:14 | 16.08987 | 99.73248 | 37893 ft | 445 kts | 341° |
| 2026-05-06 05:15 | 16.14885 | 99.71262 | 37894 ft | 445 kts | 341° |
| 2026-05-06 05:15 | 16.20768 | 99.69280 | 37896 ft | 444 kts | 341° |
| 2026-05-06 05:16 | 16.26646 | 99.67299 | 37894 ft | 444 kts | 341° |
| 2026-05-06 05:16 | 16.32524 | 99.65314 | 37896 ft | 443 kts | 341° |
| 2026-05-06 05:17 | 16.38407 | 99.63328 | 37892 ft | 443 kts | 341° |
| 2026-05-06 05:17 | 16.44236 | 99.61361 | 37891 ft | 443 kts | 341° |
| 2026-05-06 05:18 | 16.50094 | 99.59383 | 37891 ft | 443 kts | 341° |
| 2026-05-06 05:18 | 16.55962 | 99.57400 | 37889 ft | 442 kts | 341° |
| 2026-05-06 05:19 | 16.61817 | 99.55420 | 37890 ft | 442 kts | 341° |
| 2026-05-06 05:19 | 16.67670 | 99.53440 | 37891 ft | 442 kts | 341° |
| 2026-05-06 05:20 | 16.73521 | 99.51459 | 37890 ft | 442 kts | 341° |
| 2026-05-06 05:20 | 16.79368 | 99.49479 | 37893 ft | 441 kts | 341° |
| 2026-05-06 05:21 | 16.85179 | 99.47510 | 37653 ft | 443 kts | 341° |
| 2026-05-06 05:21 | 16.88113 | 99.46516 | 37155 ft | 444 kts | 341° |
| 2026-05-06 05:21 | 16.91061 | 99.45517 | 36553 ft | 445 kts | 341° |
| 2026-05-06 05:21 | 16.94005 | 99.44521 | 35969 ft | 445 kts | 341° |
| 2026-05-06 05:22 | 16.96949 | 99.43522 | 35405 ft | 446 kts | 341° |
| 2026-05-06 05:22 | 16.99906 | 99.42518 | 34845 ft | 448 kts | 341° |
| 2026-05-06 05:22 | 17.02878 | 99.41507 | 34299 ft | 451 kts | 341° |
| 2026-05-06 05:22 | 17.05874 | 99.40487 | 33749 ft | 454 kts | 341° |
| 2026-05-06 05:23 | 17.08883 | 99.39463 | 33139 ft | 455 kts | 341° |
| 2026-05-06 05:23 | 17.11902 | 99.38435 | 32536 ft | 457 kts | 341° |
| 2026-05-06 05:23 | 17.17999 | 99.36358 | 31402 ft | 463 kts | 341° |
| 2026-05-06 05:24 | 17.21066 | 99.35316 | 30841 ft | 465 kts | 341° |
| 2026-05-06 05:24 | 17.24155 | 99.34264 | 30290 ft | 466 kts | 340° |
| 2026-05-06 05:24 | 17.27230 | 99.33217 | 29717 ft | 464 kts | 340° |
| 2026-05-06 05:24 | 17.30293 | 99.32173 | 29093 ft | 460 kts | 340° |
| 2026-05-06 05:25 | 17.33322 | 99.31140 | 28481 ft | 454 kts | 340° |
| 2026-05-06 05:25 | 17.36314 | 99.30122 | 27879 ft | 449 kts | 341° |
| 2026-05-06 05:25 | 17.39227 | 99.29128 | 27298 ft | 444 kts | 341° |
| 2026-05-06 05:25 | 17.42156 | 99.28129 | 26724 ft | 439 kts | 340° |
| 2026-05-06 05:26 | 17.45048 | 99.27150 | 26159 ft | 435 kts | 342° |
| 2026-05-06 05:26 | 17.47970 | 99.26378 | 25608 ft | 431 kts | 345° |
| 2026-05-06 05:26 | 17.50878 | 99.25656 | 25067 ft | 428 kts | 345° |
| 2026-05-06 05:26 | 17.53764 | 99.24935 | 24532 ft | 425 kts | 345° |
| 2026-05-06 05:27 | 17.56629 | 99.24216 | 24009 ft | 422 kts | 345° |
| 2026-05-06 05:27 | 17.59467 | 99.23502 | 23498 ft | 418 kts | 345° |
| 2026-05-06 05:27 | 17.62287 | 99.22792 | 22885 ft | 414 kts | 345° |
| 2026-05-06 05:27 | 17.65073 | 99.22091 | 22280 ft | 410 kts | 345° |
| 2026-05-06 05:28 | 17.67836 | 99.21399 | 21687 ft | 407 kts | 345° |
| 2026-05-06 05:28 | 17.70581 | 99.20713 | 21106 ft | 403 kts | 345° |
| 2026-05-06 05:28 | 17.73296 | 99.20035 | 20538 ft | 400 kts | 345° |
| 2026-05-06 05:28 | 17.75997 | 99.19355 | 19975 ft | 396 kts | 345° |
| 2026-05-06 05:29 | 17.78627 | 99.18692 | 19439 ft | 393 kts | 345° |
| 2026-05-06 05:29 | 17.81282 | 99.18022 | 18892 ft | 390 kts | 345° |
| 2026-05-06 05:29 | 17.83907 | 99.17361 | 18362 ft | 386 kts | 345° |
| 2026-05-06 05:29 | 17.86511 | 99.16708 | 17778 ft | 383 kts | 345° |
| 2026-05-06 05:30 | 17.89091 | 99.16062 | 17171 ft | 380 kts | 345° |
| 2026-05-06 05:30 | 17.91662 | 99.15418 | 16583 ft | 377 kts | 345° |
| 2026-05-06 05:30 | 17.94205 | 99.14781 | 16011 ft | 375 kts | 345° |
| 2026-05-06 05:30 | 17.96739 | 99.14146 | 15440 ft | 373 kts | 345° |
| 2026-05-06 05:31 | 17.98406 | 99.13724 | 15067 ft | 371 kts | 345° |
| 2026-05-06 05:31 | 18.01752 | 99.12873 | 14330 ft | 368 kts | 345° |
| 2026-05-06 05:31 | 18.04236 | 99.12243 | 13791 ft | 367 kts | 345° |
| 2026-05-06 05:31 | 18.05881 | 99.11827 | 13406 ft | 366 kts | 345° |
| 2026-05-06 05:32 | 18.09187 | 99.10993 | 12600 ft | 364 kts | 345° |
| 2026-05-06 05:32 | 18.10817 | 99.10582 | 12210 ft | 363 kts | 345° |
| 2026-05-06 05:32 | 18.13273 | 99.09957 | 11631 ft | 361 kts | 343° |
| 2026-05-06 05:32 | 18.15637 | 99.09100 | 11054 ft | 359 kts | 335° |
| 2026-05-06 05:33 | 18.18648 | 99.07670 | 10274 ft | 358 kts | 334° |
| 2026-05-06 05:33 | 18.20882 | 99.06616 | 10084 ft | 345 kts | 334° |
| 2026-05-06 05:33 | 18.23027 | 99.05608 | 9959 ft | 330 kts | 335° |
| 2026-05-06 05:33 | 18.24426 | 99.04954 | 9873 ft | 321 kts | 334° |
| 2026-05-06 05:34 | 18.26424 | 99.04017 | 9763 ft | 308 kts | 334° |
| 2026-05-06 05:34 | 18.28318 | 99.03122 | 9498 ft | 299 kts | 334° |
| 2026-05-06 05:34 | 18.30208 | 99.02231 | 9121 ft | 296 kts | 334° |
| 2026-05-06 05:34 | 18.32079 | 99.01347 | 8716 ft | 294 kts | 334° |
| 2026-05-06 05:35 | 18.33937 | 99.00467 | 8322 ft | 291 kts | 334° |
| 2026-05-06 05:35 | 18.35783 | 98.99595 | 7924 ft | 290 kts | 334° |
| 2026-05-06 05:35 | 18.37002 | 98.99021 | 7644 ft | 289 kts | 334° |
| 2026-05-06 05:36 | 18.37320 | 98.98871 | 7564 ft | 290 kts | 334° |
| 2026-05-06 05:36 | 18.39146 | 98.98013 | 7278 ft | 282 kts | 334° |
| 2026-05-06 05:36 | 18.40888 | 98.97195 | 7124 ft | 265 kts | 334° |
| 2026-05-06 05:37 | 18.42526 | 98.96498 | 7009 ft | 251 kts | 342° |
| 2026-05-06 05:37 | 18.44197 | 98.96205 | 6887 ft | 236 kts | 356° |
| 2026-05-06 05:37 | 18.45790 | 98.96226 | 6785 ft | 222 kts | 358° |
| 2026-05-06 05:37 | 18.47295 | 98.96237 | 6695 ft | 211 kts | 357° |
| 2026-05-06 05:38 | 18.48709 | 98.96232 | 6685 ft | 192 kts | 357° |
| 2026-05-06 05:38 | 18.49965 | 98.96234 | 6568 ft | 167 kts | 357° |
| 2026-05-06 05:38 | 18.51052 | 98.96238 | 6415 ft | 148 kts | 356° |
| 2026-05-06 05:38 | 18.52073 | 98.96239 | 6208 ft | 146 kts | 356° |
| 2026-05-06 05:39 | 18.53077 | 98.96236 | 5980 ft | 145 kts | 356° |
| 2026-05-06 05:39 | 18.54086 | 98.96244 | 5714 ft | 144 kts | 358° |
| 2026-05-06 05:39 | 18.55086 | 98.96250 | 5393 ft | 143 kts | 358° |
| 2026-05-06 05:39 | 18.56082 | 98.96254 | 5182 ft | 142 kts | 357° |
| 2026-05-06 05:40 | 18.57070 | 98.96254 | 4918 ft | 142 kts | 357° |
| 2026-05-06 05:40 | 18.58058 | 98.96256 | 4596 ft | 141 kts | 358° |
| 2026-05-06 05:40 | 18.59030 | 98.96258 | 4302 ft | 141 kts | 358° |
| 2026-05-06 05:40 | 18.60016 | 98.96258 | 3986 ft | 141 kts | 359° |
| 2026-05-06 05:41 | 18.61008 | 98.96263 | 3726 ft | 140 kts | 359° |
| 2026-05-06 05:41 | 18.61974 | 98.96263 | 3534 ft | 141 kts | 359° |
| 2026-05-06 05:41 | 18.62975 | 98.96255 | 3333 ft | 147 kts | 359° |
| 2026-05-06 05:41 | 18.64020 | 98.96233 | 3254 ft | 151 kts | 0° |
| 2026-05-06 05:42 | 18.65063 | 98.96230 | 3156 ft | 148 kts | 1° |
| 2026-05-06 05:42 | 18.66107 | 98.96239 | 2973 ft | 152 kts | 2° |
| 2026-05-06 05:42 | 18.67172 | 98.96262 | 2727 ft | 154 kts | 1° |
| 2026-05-06 05:42 | 18.68239 | 98.96268 | 2481 ft | 151 kts | 0° |
| 2026-05-06 05:43 | 18.69274 | 98.96262 | 2302 ft | 147 kts | 359° |
| 2026-05-06 05:43 | 18.70284 | 98.96249 | 2133 ft | 143 kts | 1° |
| 2026-05-06 05:43 | 18.71277 | 98.96244 | 1874 ft | 143 kts | 2° |
| 2026-05-06 05:43 | 18.72248 | 98.96259 | 1666 ft | 136 kts | 3° |
| 2026-05-06 05:44 | 18.73195 | 98.96271 | 1455 ft | 136 kts | 1° |
| 2026-05-06 05:44 | 18.74144 | 98.96268 | 1285 ft | 135 kts | 2° |
| 2026-05-06 05:44 | 18.75091 | 98.96278 | 1098 ft | 136 kts | 0° |
| 2026-05-06 05:44 | 18.75987 | 98.96283 | 1023 ft | 122 kts | 1° |
| 2026-05-06 05:45 | 18.76667 | 98.96288 | 1031 ft | 69 kts | 0° |
| 2026-05-06 05:45 | 18.77014 | 98.96290 | 1034 ft | 26 kts | 360° |
| 2026-05-06 05:45 | 18.77143 | 98.96368 | 1035 ft | 23 kts | 89° |
| 2026-05-06 05:45 | 18.77121 | 98.96506 | 1035 ft | 20 kts | 138° |
| 2026-05-06 05:46 | 18.76999 | 98.96519 | 1033 ft | 19 kts | 181° |
| 2026-05-06 05:46 | 18.76858 | 98.96517 | 1032 ft | 22 kts | 181° |
| 2026-05-06 05:46 | 18.76740 | 98.96572 | 1031 ft | 15 kts | 99° |
| 2026-05-06 05:46 | 18.76782 | 98.96655 | 1031 ft | 11 kts | 71° |
| 2026-05-06 05:47 | 18.76784 | 98.96734 | 1031 ft | 11 kts | 92° |
| 2026-05-06 05:47 | 18.76783 | 98.96751 | 1031 ft | 0 kts | 91° |